Time;durP1;ratioP1;P1;durP2;ratioP2;P2;SDS_P1;SDS_P2;PMS_P1;PMS_P2;Temp;Humidity;BMP_temperature;BMP_pressure;BME280_temperature;BME280_humidity;BME280_pressure;Samples;Min_cycle;Max_cycle;Signal;HPM_P1;HPM_P2
2022/01/10 00:00:31;;;;;;;21.80;5.97;;;3.10;99.90;;;;;;5003821;28;20042;-72
2022/01/10 00:02:58;;;;;;;19.92;6.30;;;3.10;99.90;;;;;;5002079;28;20195;-73
2022/01/10 00:05:24;;;;;;;21.23;6.03;;;3.10;99.90;;;;;;4993068;28;20050;-73
2022/01/10 00:07:50;;;;;;;18.98;4.70;;;3.10;99.90;;;;;;4996260;28;20042;-72
2022/01/10 00:10:17;;;;;;;16.80;4.70;;;3.10;99.90;;;;;;5000660;28;20053;-72
2022/01/10 00:12:43;;;;;;;18.67;5.82;;;3.00;99.90;;;;;;4996923;28;20064;-72
2022/01/10 00:15:09;;;;;;;24.52;5.55;;;3.90;99.90;;;;;;5002898;28;20042;-72
2022/01/10 00:17:38;;;;;;;20.77;4.72;;;3.00;99.90;;;;;;5002678;28;20054;-73
2022/01/10 00:20:08;;;;;;;15.48;4.85;;;3.00;99.90;;;;;;4999180;28;20099;-72
2022/01/10 00:22:34;;;;;;;20.73;4.82;;;3.00;99.90;;;;;;4999355;28;20057;-72
2022/01/10 00:25:00;;;;;;;19.83;5.82;;;2.90;99.90;;;;;;5003202;28;20567;-72
2022/01/10 00:27:26;;;;;;;15.68;5.05;;;2.90;99.90;;;;;;5006323;28;20120;-72
2022/01/10 00:29:51;;;;;;;17.58;4.30;;;2.90;99.90;;;;;;5000121;28;20062;-72
2022/01/10 00:32:17;;;;;;;16.92;4.85;;;2.90;99.90;;;;;;4999894;28;20386;-73
2022/01/10 00:34:43;;;;;;;16.92;4.65;;;2.90;99.90;;;;;;5002302;28;20054;-72
2022/01/10 00:37:09;;;;;;;14.98;4.55;;;2.90;99.90;;;;;;5000579;28;20057;-73
2022/01/10 00:39:35;;;;;;;23.30;5.00;;;2.80;99.90;;;;;;5003828;28;20108;-72
2022/01/10 00:42:00;;;;;;;17.83;4.75;;;2.80;99.90;;;;;;4999833;28;20061;-72
2022/01/10 00:44:30;;;;;;;14.45;4.57;;;2.80;99.90;;;;;;5001288;28;20473;-72
2022/01/10 00:46:56;;;;;;;16.75;4.68;;;2.80;99.90;;;;;;5017577;28;20038;-72
2022/01/10 00:49:22;;;;;;;10.32;4.32;;;2.70;99.90;;;;;;4992298;28;20037;-72
2022/01/10 00:51:47;;;;;;;20.50;5.18;;;2.70;99.90;;;;;;4995577;28;20088;-72
2022/01/10 00:54:13;;;;;;;16.20;4.93;;;2.70;99.90;;;;;;4994566;28;20049;-72
2022/01/10 00:56:38;;;;;;;14.15;4.70;;;2.70;99.90;;;;;;4998045;28;20041;-72
2022/01/10 00:59:04;;;;;;;25.92;6.20;;;2.70;99.90;;;;;;5017676;28;20046;-72
2022/01/10 01:01:29;;;;;;;19.08;4.68;;;2.60;99.90;;;;;;5002458;28;20054;-72
2022/01/10 01:03:55;;;;;;;16.15;4.65;;;2.60;99.90;;;;;;5003745;28;20042;-72
2022/01/10 01:06:21;;;;;;;19.77;6.07;;;2.50;99.90;;;;;;4996089;28;20140;-72
2022/01/10 01:08:47;;;;;;;17.42;4.93;;;2.50;99.90;;;;;;4999083;28;20077;-73
2022/01/10 01:11:31;;;;;;;20.30;5.50;;;2.50;99.90;;;;;;4997265;28;20052;-72
2022/01/10 01:14:00;;;;;;;17.45;5.38;;;2.60;99.90;;;;;;5032618;28;20199;-72
2022/01/10 01:24:31;;;;;;;19.30;4.72;;;2.50;99.90;;;;;;5015258;28;20053;-73
2022/01/10 01:26:57;;;;;;;14.18;4.50;;;2.50;99.90;;;;;;4999088;28;22482;-73
2022/01/10 01:29:25;;;;;;;14.85;4.30;;;2.60;99.90;;;;;;5002658;28;20064;-72
2022/01/10 01:31:52;;;;;;;20.60;4.82;;;2.50;99.90;;;;;;5004722;28;20523;-73
2022/01/10 01:34:19;;;;;;;15.98;4.45;;;2.40;99.90;;;;;;4997326;28;20081;-72
2022/01/10 01:36:49;;;;;;;17.27;4.82;;;2.40;99.90;;;;;;5001335;28;20042;-72
2022/01/10 01:39:22;;;;;;;14.50;4.03;;;2.40;99.90;;;;;;4997963;28;20058;-72
2022/01/10 01:41:50;;;;;;;12.67;5.13;;;2.40;99.90;;;;;;4995823;28;20041;-72
2022/01/10 01:44:16;;;;;;;17.98;4.63;;;2.40;99.90;;;;;;4999285;28;20054;-72
2022/01/10 01:46:42;;;;;;;26.77;6.38;;;2.30;99.90;;;;;;4999240;28;20034;-72
2022/01/10 01:49:09;;;;;;;14.05;4.38;;;2.30;99.90;;;;;;4998013;28;20118;-72
2022/01/10 01:51:35;;;;;;;11.05;3.85;;;2.30;99.90;;;;;;4996088;28;20042;-72
2022/01/10 01:54:01;;;;;;;17.25;4.85;;;2.40;99.90;;;;;;4995939;28;20050;-72
2022/01/10 01:56:27;;;;;;;11.82;3.92;;;2.50;99.90;;;;;;5009108;28;20124;-72
2022/01/10 01:58:54;;;;;;;25.77;5.60;;;2.30;99.90;;;;;;4997746;28;20046;-72
2022/01/10 02:01:20;;;;;;;17.48;5.50;;;2.30;99.90;;;;;;4995301;28;20504;-72
2022/01/10 02:03:48;;;;;;;17.15;5.25;;;2.30;99.90;;;;;;4995072;28;20053;-72
2022/01/10 02:06:14;;;;;;;16.48;4.78;;;2.20;99.90;;;;;;5000240;28;20564;-72
2022/01/10 02:08:40;;;;;;;18.10;5.28;;;2.20;99.90;;;;;;4992453;28;20039;-72
2022/01/10 02:11:07;;;;;;;13.60;4.05;;;2.20;99.90;;;;;;4991929;28;20138;-72
2022/01/10 02:13:33;;;;;;;17.63;5.18;;;2.10;99.90;;;;;;5002583;28;20504;-72
2022/01/10 02:16:04;;;;;;;15.10;4.80;;;2.10;99.90;;;;;;5001407;28;20062;-72
2022/01/10 02:18:30;;;;;;;23.73;5.57;;;2.10;99.90;;;;;;4998762;28;21438;-72
2022/01/10 02:21:00;;;;;;;13.32;4.03;;;2.20;99.90;;;;;;4999365;28;20052;-72
2022/01/10 02:23:27;;;;;;;14.27;4.38;;;2.20;99.90;;;;;;5000839;28;20034;-72
2022/01/10 02:25:53;;;;;;;17.73;4.65;;;2.00;99.90;;;;;;4999258;28;20068;-72
2022/01/10 02:28:18;;;;;;;12.40;4.15;;;2.10;99.90;;;;;;4998810;28;20865;-72
2022/01/10 02:30:44;;;;;;;12.07;4.00;;;2.00;99.90;;;;;;4999294;28;20037;-72
2022/01/10 02:33:10;;;;;;;14.50;4.47;;;2.00;99.90;;;;;;4995542;28;20057;-72
2022/01/10 02:35:47;;;;;;;17.63;4.80;;;1.90;99.90;;;;;;4998786;28;20046;-72
2022/01/10 02:38:12;;;;;;;14.57;6.28;;;1.90;99.90;;;;;;4994811;28;20047;-72
2022/01/10 02:40:38;;;;;;;16.27;5.47;;;1.90;99.90;;;;;;5000039;28;20056;-72
2022/01/10 02:43:07;;;;;;;17.20;5.15;;;1.90;99.90;;;;;;5005707;28;20527;-72
2022/01/10 02:45:33;;;;;;;11.52;4.68;;;1.80;99.90;;;;;;5005963;28;20056;-72
2022/01/10 02:47:59;;;;;;;12.30;4.22;;;1.80;99.90;;;;;;4998532;28;20054;-72
2022/01/10 02:50:25;;;;;;;16.30;4.35;;;1.80;99.90;;;;;;4998530;28;20050;-72
2022/01/10 02:52:50;;;;;;;15.80;4.82;;;1.70;99.90;;;;;;4996858;28;20495;-72
2022/01/10 02:55:16;;;;;;;12.63;4.88;;;1.70;99.90;;;;;;4995980;28;20125;-72
2022/01/10 02:57:43;;;;;;;13.35;5.13;;;1.70;99.90;;;;;;5014063;28;20057;-73
2022/01/10 03:00:20;;;;;;;9.38;4.53;;;1.60;99.90;;;;;;5023730;27;20061;-72
2022/01/10 03:02:50;;;;;;;16.38;5.40;;;1.60;99.90;;;;;;4995487;28;20516;-71
2022/01/10 03:05:16;;;;;;;14.48;5.57;;;1.70;99.90;;;;;;5000902;28;20042;-72
2022/01/10 03:07:42;;;;;;;16.95;5.05;;;1.70;99.90;;;;;;4996925;28;20441;-72
2022/01/10 03:10:08;;;;;;;13.38;4.18;;;1.70;99.90;;;;;;4997313;28;20042;-72
2022/01/10 03:12:34;;;;;;;21.67;6.13;;;1.70;99.90;;;;;;4994670;28;20072;-71
2022/01/10 03:15:01;;;;;;;13.32;5.07;;;1.60;99.90;;;;;;4997033;28;20046;-72
2022/01/10 03:17:27;;;;;;;17.77;6.82;;;1.60;99.90;;;;;;4994881;28;21095;-72
2022/01/10 03:19:53;;;;;;;21.52;7.03;;;1.60;99.90;;;;;;4992789;28;20095;-72
2022/01/10 03:22:19;;;;;;;15.23;5.57;;;1.60;99.90;;;;;;4995685;28;20050;-72
2022/01/10 03:24:45;;;;;;;18.60;6.15;;;1.50;99.90;;;;;;4995045;28;20034;-72
2022/01/10 03:27:11;;;;;;;17.50;6.50;;;1.50;99.90;;;;;;5000408;28;20074;-72
2022/01/10 03:29:37;;;;;;;9.40;3.50;;;1.50;99.90;;;;;;4997374;28;20597;-72
2022/01/10 03:32:05;;;;;;;19.23;6.05;;;1.50;99.90;;;;;;4997935;28;20042;-72
2022/01/10 03:34:30;;;;;;;14.93;6.25;;;1.60;99.90;;;;;;4996177;28;20061;-72
2022/01/10 03:36:56;;;;;;;18.10;6.70;;;1.60;99.90;;;;;;4997282;28;20054;-72
2022/01/10 03:39:23;;;;;;;23.10;6.93;;;1.50;99.90;;;;;;5002363;28;20062;-72
2022/01/10 03:41:49;;;;;;;21.48;7.55;;;1.50;99.90;;;;;;5000695;28;20061;-72
2022/01/10 03:44:15;;;;;;;25.92;8.07;;;1.50;99.90;;;;;;5000503;28;20637;-72
2022/01/10 03:46:41;;;;;;;20.80;8.23;;;1.50;99.90;;;;;;5002298;28;20038;-72
2022/01/10 03:49:07;;;;;;;19.95;7.32;;;1.50;99.90;;;;;;4996264;28;20091;-72
2022/01/10 03:51:33;;;;;;;17.73;6.60;;;1.50;99.90;;;;;;5002177;28;20038;-72
2022/01/10 03:53:58;;;;;;;14.20;5.30;;;1.50;99.90;;;;;;4997236;28;20060;-71
2022/01/10 03:56:28;;;;;;;14.43;5.28;;;1.50;99.90;;;;;;4998553;28;20038;-72
2022/01/10 03:58:55;;;;;;;17.08;5.97;;;1.50;99.90;;;;;;5004316;28;20428;-72
2022/01/10 04:01:21;;;;;;;10.02;4.18;;;1.50;99.90;;;;;;5006483;28;20176;-72
2022/01/10 04:03:46;;;;;;;12.23;5.55;;;1.50;99.90;;;;;;5004931;28;20463;-72
2022/01/10 04:06:12;;;;;;;15.27;6.63;;;1.50;99.90;;;;;;5001491;28;20462;-72
2022/01/10 04:08:39;;;;;;;15.75;6.65;;;1.50;99.90;;;;;;5001948;28;20049;-72
2022/01/10 04:11:04;;;;;;;25.25;7.93;;;1.50;99.90;;;;;;4993626;28;20054;-72
2022/01/10 04:13:30;;;;;;;19.85;8.23;;;1.40;99.90;;;;;;5004210;28;20054;-72
2022/01/10 04:15:56;;;;;;;15.85;6.35;;;1.40;99.90;;;;;;5003647;28;20038;-72
2022/01/10 04:18:21;;;;;;;21.02;8.68;;;1.30;99.90;;;;;;5001044;28;20464;-72
2022/01/10 04:20:48;;;;;;;23.63;8.55;;;1.30;99.90;;;;;;5002017;28;20048;-72
2022/01/10 04:23:15;;;;;;;25.00;9.90;;;1.30;99.90;;;;;;5003064;28;20051;-72
2022/01/10 04:25:41;;;;;;;17.70;8.80;;;1.30;99.90;;;;;;5013406;28;20053;-72
2022/01/10 04:28:08;;;;;;;21.90;7.63;;;1.30;99.90;;;;;;4999476;28;20546;-72
2022/01/10 04:30:34;;;;;;;22.27;9.90;;;1.30;99.90;;;;;;5002293;28;20049;-72
2022/01/10 04:33:01;;;;;;;23.95;10.45;;;1.20;99.90;;;;;;5000455;28;20042;-72
2022/01/10 04:35:27;;;;;;;24.67;8.63;;;1.40;99.90;;;;;;4998476;28;20128;-72
2022/01/10 04:37:53;;;;;;;24.85;8.95;;;1.20;99.90;;;;;;5024987;28;20232;-72
2022/01/10 04:40:19;;;;;;;30.17;10.18;;;1.20;99.90;;;;;;4998099;28;20118;-72
2022/01/10 04:42:45;;;;;;;26.08;9.35;;;1.20;99.90;;;;;;5028261;28;20047;-72
2022/01/10 04:45:11;;;;;;;24.77;10.23;;;1.20;99.90;;;;;;5000391;28;20396;-72
2022/01/10 04:47:37;;;;;;;24.75;9.82;;;1.20;99.90;;;;;;4997560;28;20042;-71
2022/01/10 04:51:10;;;;;;;26.52;10.32;;;1.20;99.90;;;;;;5006283;28;20054;-72
2022/01/10 04:52:52;;;;;;;24.15;10.38;;;1.20;99.90;;;;;;4995030;28;20049;-72
2022/01/10 04:55:19;;;;;;;21.65;10.52;;;1.20;99.90;;;;;;5010811;28;20081;-71
2022/01/10 04:57:45;;;;;;;28.33;11.00;;;1.20;99.90;;;;;;5001880;28;20054;-71
2022/01/10 05:00:13;;;;;;;26.20;10.98;;;1.20;99.90;;;;;;4998531;28;20054;-72
2022/01/10 05:02:41;;;;;;;21.17;9.32;;;1.20;99.90;;;;;;4999356;28;20061;-72
2022/01/10 05:05:07;;;;;;;20.98;9.63;;;1.20;99.90;;;;;;4995052;28;20418;-71
2022/01/10 05:07:32;;;;;;;32.63;11.25;;;1.10;99.90;;;;;;4998723;28;20393;-71
2022/01/10 05:09:58;;;;;;;27.17;10.98;;;1.10;99.90;;;;;;5009768;28;20046;-72
2022/01/10 05:12:25;;;;;;;21.80;9.32;;;1.10;99.90;;;;;;4996207;28;20113;-72
2022/01/10 05:14:51;;;;;;;22.55;9.40;;;1.10;99.90;;;;;;4997286;28;20049;-71
2022/01/10 05:17:19;;;;;;;21.70;10.65;;;1.10;99.90;;;;;;4996965;28;20578;-72
2022/01/10 05:19:45;;;;;;;24.10;10.38;;;2.20;99.90;;;;;;4999744;28;20507;-72
2022/01/10 05:22:10;;;;;;;23.02;10.25;;;1.10;99.90;;;;;;4998279;28;20050;-72
2022/01/10 05:24:36;;;;;;;22.45;9.27;;;1.10;99.90;;;;;;4997583;28;20500;-71
2022/01/10 05:27:02;;;;;;;24.13;9.02;;;1.10;99.90;;;;;;4998118;28;20052;-72
2022/01/10 05:29:27;;;;;;;24.20;10.20;;;1.10;99.90;;;;;;4999223;28;20050;-72
2022/01/10 05:31:53;;;;;;;26.27;11.25;;;1.10;99.90;;;;;;5002283;28;20077;-71
2022/01/10 05:34:18;;;;;;;20.05;8.70;;;1.30;99.90;;;;;;5000548;28;20042;-72
2022/01/10 05:36:44;;;;;;;26.60;9.68;;;1.10;99.90;;;;;;4999532;28;20056;-72
2022/01/10 05:39:10;;;;;;;24.70;9.18;;;1.10;99.90;;;;;;4996332;28;20211;-72
2022/01/10 05:41:36;;;;;;;25.88;10.15;;;1.10;99.90;;;;;;4997107;28;20099;-71
2022/01/10 05:44:02;;;;;;;26.73;10.50;;;1.10;99.90;;;;;;5020136;28;20129;-72
2022/01/10 05:46:28;;;;;;;22.40;10.10;;;1.10;99.90;;;;;;5000964;28;20049;-71
2022/01/10 05:48:59;;;;;;;33.70;12.23;;;1.10;99.90;;;;;;4990630;28;20043;-71
2022/01/10 05:51:28;;;;;;;26.42;10.70;;;1.00;99.90;;;;;;4995926;28;20057;-72
2022/01/10 05:53:53;;;;;;;30.75;12.88;;;1.10;99.90;;;;;;5008461;28;20065;-72
2022/01/10 05:56:19;;;;;;;29.05;11.40;;;1.00;99.90;;;;;;5015350;28;20046;-72
2022/01/10 05:58:44;;;;;;;26.25;12.25;;;1.00;99.90;;;;;;5029949;28;20039;-72
2022/01/10 06:01:10;;;;;;;25.40;11.52;;;1.00;99.90;;;;;;5006982;28;20500;-71
2022/01/10 06:03:36;;;;;;;30.85;12.43;;;1.00;99.90;;;;;;5007989;28;20492;-72
2022/01/10 06:06:01;;;;;;;22.13;10.07;;;0.90;99.90;;;;;;5011947;28;20049;-72
2022/01/10 06:08:27;;;;;;;24.83;10.68;;;1.10;99.90;;;;;;5046686;28;20082;-72
2022/01/10 06:10:52;;;;;;;21.90;9.40;;;1.00;99.90;;;;;;5017046;28;20054;-71
2022/01/10 06:13:18;;;;;;;22.42;10.68;;;1.00;99.90;;;;;;5021617;28;20042;-71
2022/01/10 06:15:43;;;;;;;24.98;10.02;;;1.00;99.90;;;;;;5026352;28;20046;-72
2022/01/10 06:18:09;;;;;;;18.40;10.02;;;1.10;99.90;;;;;;5034255;28;20042;-71
2022/01/10 06:20:34;;;;;;;23.42;9.02;;;1.00;99.90;;;;;;5027766;28;20377;-71
2022/01/10 06:23:00;;;;;;;23.30;10.55;;;1.00;99.90;;;;;;5016518;28;20070;-71
2022/01/10 06:25:27;;;;;;;29.80;12.23;;;1.00;99.90;;;;;;5007029;28;20090;-71
2022/01/10 06:27:53;;;;;;;20.25;10.48;;;1.00;99.90;;;;;;5003670;28;20042;-71
2022/01/10 06:30:19;;;;;;;22.77;10.55;;;1.00;99.90;;;;;;5005228;28;20053;-71
2022/01/10 06:32:45;;;;;;;24.27;9.95;;;1.00;99.90;;;;;;5004644;28;20044;-71
2022/01/10 06:35:11;;;;;;;22.63;11.02;;;0.90;99.90;;;;;;5001354;28;20392;-71
2022/01/10 06:37:36;;;;;;;19.25;10.50;;;0.90;99.90;;;;;;5000293;28;20049;-71
2022/01/10 06:40:04;;;;;;;24.45;12.32;;;0.90;99.90;;;;;;5002706;28;20721;-71
2022/01/10 06:42:30;;;;;;;29.50;12.43;;;0.90;99.90;;;;;;5007803;28;21501;-70
2022/01/10 06:44:56;;;;;;;26.70;11.40;;;0.90;99.90;;;;;;5009416;28;20045;-71
2022/01/10 06:47:21;;;;;;;31.05;13.40;;;0.90;99.90;;;;;;5004510;28;20049;-70
2022/01/10 06:49:47;;;;;;;26.58;13.35;;;0.80;99.90;;;;;;5005154;28;20069;-70
2022/01/10 06:52:13;;;;;;;26.95;11.77;;;0.80;99.90;;;;;;5002740;28;20732;-69
2022/01/10 06:54:38;;;;;;;30.77;15.35;;;0.80;99.90;;;;;;5006647;28;20161;-69
2022/01/10 06:57:04;;;;;;;31.95;14.23;;;0.70;99.90;;;;;;5027973;28;20103;-68
2022/01/10 06:59:30;;;;;;;34.38;13.85;;;0.70;99.90;;;;;;5021349;28;20498;-69
2022/01/10 07:01:57;;;;;;;29.75;14.15;;;0.80;99.90;;;;;;5032946;28;20031;-69
2022/01/10 07:04:23;;;;;;;32.58;17.10;;;0.70;99.90;;;;;;5034228;28;20034;-69
2022/01/10 07:06:49;;;;;;;38.72;17.80;;;0.70;99.90;;;;;;5031048;28;20503;-70
2022/01/10 07:09:15;;;;;;;26.92;14.15;;;0.70;99.90;;;;;;5035051;28;20038;-69
2022/01/10 07:11:40;;;;;;;28.10;14.38;;;0.70;99.90;;;;;;5017041;28;20042;-69
2022/01/10 07:14:06;;;;;;;35.03;15.00;;;0.70;99.90;;;;;;5017818;28;20400;-71
2022/01/10 07:16:32;;;;;;;26.45;14.20;;;0.70;99.90;;;;;;5029079;28;20031;-70
2022/01/10 07:18:58;;;;;;;28.17;15.00;;;0.60;99.90;;;;;;5017847;28;20923;-70
2022/01/10 07:21:23;;;;;;;34.50;14.95;;;0.60;99.90;;;;;;5022177;28;20043;-69
2022/01/10 07:23:49;;;;;;;33.65;16.38;;;0.60;99.90;;;;;;5022322;28;20097;-70
2022/01/10 07:26:15;;;;;;;24.20;13.63;;;0.80;99.90;;;;;;5011800;28;20040;-69
2022/01/10 07:28:41;;;;;;;27.52;13.85;;;0.80;99.90;;;;;;4999656;28;20535;-69
2022/01/10 07:31:07;;;;;;;35.40;16.73;;;0.70;99.90;;;;;;5024363;27;20045;-69
2022/01/10 07:33:33;;;;;;;28.80;14.93;;;0.70;99.90;;;;;;4999273;28;20048;-69
2022/01/10 07:35:58;;;;;;;20.27;12.57;;;0.80;99.90;;;;;;5004852;28;20137;-69
2022/01/10 07:38:24;;;;;;;21.73;11.77;;;0.70;99.90;;;;;;4997365;28;20454;-69
2022/01/10 07:40:50;;;;;;;35.60;16.73;;;0.70;99.90;;;;;;5001497;28;20046;-69
2022/01/10 07:43:16;;;;;;;27.27;15.23;;;0.70;99.90;;;;;;5012378;28;20050;-70
2022/01/10 07:45:41;;;;;;;29.52;14.73;;;0.70;99.90;;;;;;5001937;28;20054;-69
2022/01/10 07:48:07;;;;;;;26.67;13.25;;;0.60;99.90;;;;;;4997779;28;20107;-70
2022/01/10 07:50:33;;;;;;;31.30;16.30;;;0.70;99.90;;;;;;4991911;28;20049;-70
2022/01/10 07:52:58;;;;;;;31.20;15.75;;;0.70;99.90;;;;;;4997596;28;20541;-70
2022/01/10 07:55:24;;;;;;;24.15;12.60;;;0.70;99.90;;;;;;4992524;28;20043;-69
2022/01/10 07:57:50;;;;;;;22.10;11.65;;;0.70;99.90;;;;;;5002387;28;20173;-70
2022/01/10 08:00:15;;;;;;;35.65;17.42;;;0.70;99.90;;;;;;4984045;28;20065;-70
2022/01/10 08:02:41;;;;;;;38.08;21.33;;;0.70;99.90;;;;;;4999103;28;20042;-70
2022/01/10 08:05:09;;;;;;;31.92;16.27;;;0.70;99.90;;;;;;5019077;28;20164;-69
2022/01/10 08:07:35;;;;;;;31.48;18.00;;;0.70;99.90;;;;;;5000806;28;20042;-71
2022/01/10 08:10:02;;;;;;;34.88;17.88;;;0.40;99.90;;;;;;4988707;28;20057;-71
2022/01/10 08:12:28;;;;;;;28.45;14.88;;;0.60;99.90;;;;;;4987075;28;20046;-71
2022/01/10 08:14:53;;;;;;;33.47;18.92;;;0.60;99.90;;;;;;4997462;28;20049;-71
2022/01/10 08:17:19;;;;;;;42.03;24.00;;;0.60;99.90;;;;;;4996103;28;20104;-70
2022/01/10 08:19:44;;;;;;;37.35;19.05;;;0.60;99.90;;;;;;4984729;28;20156;-71
2022/01/10 08:22:10;;;;;;;28.15;16.20;;;0.60;99.90;;;;;;4994587;28;20050;-71
2022/01/10 08:24:36;;;;;;;27.30;14.68;;;0.60;99.90;;;;;;4997237;28;20057;-71
2022/01/10 08:27:02;;;;;;;35.20;18.55;;;0.70;99.90;;;;;;5005765;28;20050;-70
2022/01/10 08:29:29;;;;;;;32.40;15.73;;;0.60;99.90;;;;;;4994036;28;20038;-74
2022/01/10 08:31:55;;;;;;;32.65;19.08;;;0.70;99.90;;;;;;5001751;28;20492;-70
2022/01/10 08:34:21;;;;;;;39.08;19.08;;;0.70;99.90;;;;;;4993600;28;20060;-72
2022/01/10 08:36:47;;;;;;;27.05;13.65;;;0.90;99.90;;;;;;4988827;28;20085;-72
2022/01/10 08:39:13;;;;;;;39.15;19.92;;;0.70;99.90;;;;;;4996378;28;20133;-73
2022/01/10 08:41:38;;;;;;;38.15;22.65;;;0.70;99.90;;;;;;4989941;28;20054;-73
2022/01/10 08:44:05;;;;;;;23.95;14.98;;;0.70;99.90;;;;;;5002883;28;20050;-72
2022/01/10 08:46:31;;;;;;;44.25;21.42;;;0.80;99.90;;;;;;4996029;28;20501;-72
2022/01/10 08:48:57;;;;;;;38.05;21.63;;;0.70;99.90;;;;;;4992808;28;20046;-73
2022/01/10 08:51:24;;;;;;;40.55;23.88;;;0.80;99.90;;;;;;4989891;28;20055;-73
2022/01/10 08:53:49;;;;;;;46.92;21.85;;;0.80;99.90;;;;;;5005643;28;20393;-72
2022/01/10 08:56:15;;;;;;;46.50;25.17;;;0.80;99.90;;;;;;5001241;28;20062;-72
2022/01/10 08:58:41;;;;;;;44.50;22.55;;;0.80;99.90;;;;;;5000712;28;20057;-72
2022/01/10 09:01:07;;;;;;;54.05;25.95;;;0.80;99.90;;;;;;4991585;28;20646;-72
2022/01/10 09:03:34;;;;;;;50.25;25.42;;;0.90;99.90;;;;;;4995554;28;20073;-72
2022/01/10 09:06:00;;;;;;;50.00;26.58;;;0.90;99.90;;;;;;4997533;28;20370;-72
2022/01/10 09:08:32;;;;;;;47.83;26.88;;;0.90;99.90;;;;;;4993253;28;20084;-73
2022/01/10 09:10:59;;;;;;;45.38;24.88;;;0.90;99.90;;;;;;4986549;28;20053;-73
2022/01/10 09:13:25;;;;;;;43.70;24.15;;;0.90;99.90;;;;;;4997002;28;20053;-73
2022/01/10 09:15:50;;;;;;;47.83;25.45;;;0.90;99.90;;;;;;4998022;28;20058;-72
2022/01/10 09:18:17;;;;;;;46.28;23.70;;;0.90;99.90;;;;;;5024865;27;20046;-73
2022/01/10 09:20:44;;;;;;;45.40;26.13;;;0.90;99.90;;;;;;4986159;28;20058;-72
2022/01/10 09:23:10;;;;;;;47.10;26.17;;;1.00;99.90;;;;;;4993293;28;20180;-73
2022/01/10 09:25:36;;;;;;;50.13;26.58;;;1.00;99.90;;;;;;5003538;28;20384;-72
2022/01/10 09:28:02;;;;;;;44.80;23.40;;;1.00;99.90;;;;;;4998470;28;20057;-73
2022/01/10 09:30:28;;;;;;;52.72;27.98;;;1.00;99.90;;;;;;4992948;28;20057;-73
2022/01/10 09:32:54;;;;;;;48.10;27.70;;;1.10;99.90;;;;;;4999188;28;20054;-72
2022/01/10 09:35:21;;;;;;;62.20;30.70;;;1.10;99.90;;;;;;5000669;28;20046;-73
2022/01/10 09:37:47;;;;;;;58.25;27.67;;;1.20;99.90;;;;;;4994308;28;20073;-73
2022/01/10 09:40:13;;;;;;;46.17;28.38;;;1.20;99.90;;;;;;4991126;28;20108;-72
2022/01/10 09:42:38;;;;;;;57.15;29.38;;;1.30;99.90;;;;;;5013028;28;20564;-72
2022/01/10 09:45:06;;;;;;;57.50;31.30;;;1.30;99.90;;;;;;4994802;28;20048;-72
2022/01/10 09:47:32;;;;;;;61.38;34.70;;;1.30;99.90;;;;;;5015287;28;20065;-72
2022/01/10 09:49:58;;;;;;;45.58;27.70;;;1.30;99.90;;;;;;4994677;28;21565;-70
2022/01/10 09:52:24;;;;;;;59.00;30.75;;;1.50;99.90;;;;;;5004629;28;20050;-72
2022/01/10 09:54:53;;;;;;;58.42;31.77;;;1.40;99.90;;;;;;5000266;28;20064;-72
2022/01/10 09:57:21;;;;;;;56.42;31.80;;;1.40;99.90;;;;;;4996955;28;20050;-72
2022/01/10 09:59:48;;;;;;;52.03;28.10;;;1.50;99.90;;;;;;5035854;28;20490;-71
2022/01/10 10:02:17;;;;;;;52.85;28.98;;;1.50;99.90;;;;;;4996367;28;20050;-71
2022/01/10 10:04:44;;;;;;;63.58;31.70;;;1.50;99.90;;;;;;5007580;28;20049;-72
2022/01/10 10:07:10;;;;;;;68.50;31.95;;;1.60;99.90;;;;;;5008466;28;20677;-72
2022/01/10 10:09:36;;;;;;;69.78;34.15;;;1.60;99.90;;;;;;5005670;28;20866;-74
2022/01/10 10:12:04;;;;;;;62.25;32.63;;;1.60;99.90;;;;;;5001168;28;20041;-74
2022/01/10 10:14:31;;;;;;;60.38;32.22;;;1.70;99.90;;;;;;5017759;28;20054;-74
2022/01/10 10:16:58;;;;;;;60.20;32.22;;;1.70;99.90;;;;;;5001378;28;20058;-74
2022/01/10 10:19:26;;;;;;;66.32;32.75;;;1.80;99.90;;;;;;4992571;28;22056;-74
2022/01/10 10:21:54;;;;;;;60.28;33.72;;;2.00;99.90;;;;;;4997636;28;20520;-74
2022/01/10 10:24:20;;;;;;;60.38;31.90;;;1.80;99.90;;;;;;4996370;28;20045;-74
2022/01/10 10:26:46;;;;;;;64.38;36.47;;;1.90;99.90;;;;;;5000938;28;20434;-74
2022/01/10 10:29:17;;;;;;;72.20;37.30;;;2.00;99.90;;;;;;4991945;28;20053;-74
2022/01/10 10:31:55;;;;;;;70.65;38.72;;;2.00;99.90;;;;;;5003110;28;20042;-74
2022/01/10 10:34:27;;;;;;;59.92;34.33;;;2.00;99.90;;;;;;4993090;28;20673;-74
2022/01/10 10:37:08;;;;;;;65.18;35.38;;;2.10;99.90;;;;;;5008049;28;20130;-75
2022/01/10 10:39:36;;;;;;;70.20;32.88;;;2.20;99.90;;;;;;4987015;28;20879;-75
2022/01/10 10:42:04;;;;;;;64.72;32.72;;;2.20;99.90;;;;;;4994431;28;20118;-75
2022/01/10 10:44:30;;;;;;;64.93;35.10;;;2.30;99.90;;;;;;5011187;28;20087;-74
2022/01/10 10:46:56;;;;;;;66.20;34.22;;;2.40;99.90;;;;;;4995999;28;20062;-74
2022/01/10 10:49:37;;;;;;;65.63;32.45;;;2.40;99.90;;;;;;4991896;28;20063;-74
2022/01/10 10:52:06;;;;;;;70.28;34.15;;;2.50;99.90;;;;;;4998735;28;20061;-75
2022/01/10 10:54:33;;;;;;;57.55;31.92;;;2.60;99.90;;;;;;5008296;28;20039;-75
2022/01/10 10:57:00;;;;;;;61.67;32.53;;;2.70;99.90;;;;;;5014022;28;20044;-75
2022/01/10 10:59:30;;;;;;;66.00;33.13;;;2.90;99.90;;;;;;4994280;28;20105;-75
2022/01/10 11:01:56;;;;;;;70.60;35.35;;;2.80;99.90;;;;;;4997751;28;20057;-75
2022/01/10 11:04:22;;;;;;;65.65;33.40;;;3.80;99.90;;;;;;4998805;28;20046;-75
2022/01/10 11:06:47;;;;;;;61.55;32.15;;;3.00;99.90;;;;;;4993943;28;20046;-75
2022/01/10 11:09:14;;;;;;;56.50;30.50;;;3.10;99.90;;;;;;4996469;28;20102;-75
2022/01/10 11:11:44;;;;;;;50.97;28.25;;;3.10;99.90;;;;;;4989835;28;20438;-75
2022/01/10 11:14:13;;;;;;;56.17;29.00;;;3.20;99.90;;;;;;4996981;28;20134;-75
2022/01/10 11:16:41;;;;;;;56.20;27.88;;;3.30;99.90;;;;;;5001730;28;20138;-76
2022/01/10 11:19:21;;;;;;;57.38;28.98;;;3.40;99.90;;;;;;4989257;28;20139;-74
2022/01/10 11:22:05;;;;;;;45.58;28.67;;;3.90;99.90;;;;;;4991946;28;20062;-75
2022/01/10 11:24:54;;;;;;;52.20;28.65;;;3.60;99.90;;;;;;4995826;28;20092;-75
2022/01/10 11:27:28;;;;;;;50.72;27.08;;;3.70;99.90;;;;;;5011713;28;20061;-76
2022/01/10 11:29:56;;;;;;;48.22;26.27;;;3.80;99.90;;;;;;5004060;28;20066;-75
2022/01/10 11:33:01;;;;;;;43.80;26.70;;;3.90;99.90;;;;;;5018643;28;21588;-76
2022/01/10 11:35:28;;;;;;;46.65;26.05;;;4.00;99.90;;;;;;4991232;28;20065;-76
2022/01/10 11:37:54;;;;;;;44.50;25.13;;;4.20;99.90;;;;;;4999192;28;20062;-76
2022/01/10 11:40:20;;;;;;;45.10;24.45;;;4.30;99.90;;;;;;4979819;28;20054;-75
2022/01/10 11:42:59;;;;;;;45.95;24.73;;;4.40;99.90;;;;;;4994387;28;20049;-75
2022/01/10 11:45:26;;;;;;;45.00;24.80;;;4.50;99.90;;;;;;5005930;28;22730;-75
2022/01/10 11:48:06;;;;;;;35.88;21.52;;;4.60;99.90;;;;;;5008813;28;20050;-74
2022/01/10 11:50:32;;;;;;;37.20;21.45;;;4.70;99.90;;;;;;4991139;28;20064;-75
2022/01/10 11:53:03;;;;;;;46.65;23.90;;;4.80;99.90;;;;;;5014495;28;20042;-75
2022/01/10 11:55:32;;;;;;;34.80;20.38;;;4.90;99.90;;;;;;4993893;28;20056;-75
2022/01/10 11:58:05;;;;;;;41.70;21.70;;;5.00;99.90;;;;;;5008105;28;20061;-75
2022/01/10 12:00:36;;;;;;;39.88;21.15;;;5.10;99.90;;;;;;4997245;28;20132;-75
2022/01/10 12:03:02;;;;;;;36.17;19.85;;;5.20;99.90;;;;;;5001274;28;20050;-75
2022/01/10 12:05:27;;;;;;;37.65;20.40;;;5.30;99.90;;;;;;4994222;28;20046;-75
2022/01/10 12:07:53;;;;;;;36.30;17.60;;;5.40;99.90;;;;;;4998879;28;20049;-75
2022/01/10 12:10:20;;;;;;;30.58;19.45;;;5.50;99.90;;;;;;5017328;27;20057;-75
2022/01/10 12:12:50;;;;;;;33.60;17.95;;;5.60;99.90;;;;;;5017490;28;20108;-76
2022/01/10 12:15:15;;;;;;;34.58;17.85;;;5.70;99.90;;;;;;4995928;28;20127;-76
2022/01/10 12:17:41;;;;;;;34.85;18.38;;;5.80;99.90;;;;;;4995375;28;20133;-77
2022/01/10 12:20:09;;;;;;;30.35;17.02;;;5.80;99.90;;;;;;4997351;28;20030;-75
2022/01/10 12:22:38;;;;;;;26.55;14.82;;;5.90;99.90;;;;;;4997832;28;20041;-75
2022/01/10 12:25:06;;;;;;;28.08;15.77;;;5.90;99.90;;;;;;5024351;28;20401;-76
2022/01/10 12:27:35;;;;;;;28.92;15.02;;;6.00;99.90;;;;;;5023337;28;20205;-77
2022/01/10 12:30:02;;;;;;;28.52;16.63;;;6.00;99.90;;;;;;4990425;28;20537;-76
2022/01/10 12:32:33;;;;;;;34.90;17.20;;;6.10;99.90;;;;;;5007446;28;20662;-75
2022/01/10 12:34:58;;;;;;;26.27;15.05;;;6.10;99.90;;;;;;4990736;28;20053;-74
2022/01/10 12:37:24;;;;;;;29.52;15.68;;;6.20;99.90;;;;;;4992378;28;20931;-74
2022/01/10 12:39:49;;;;;;;28.40;17.23;;;6.20;99.90;;;;;;4991365;28;20904;-74
2022/01/10 12:42:15;;;;;;;30.25;15.18;;;6.20;99.90;;;;;;4994875;28;20042;-74
2022/01/10 12:44:41;;;;;;;26.60;15.30;;;6.20;99.90;;;;;;4997270;28;20401;-74
2022/01/10 12:47:07;;;;;;;29.40;16.67;;;6.20;99.90;;;;;;4992986;28;20042;-74